Time;durP1;ratioP1;P1;durP2;ratioP2;P2;SDS_P1;SDS_P2;PMS_P1;PMS_P2;Temp;Humidity;BMP_temperature;BMP_pressure;BME280_temperature;BME280_humidity;BME280_pressure;Samples;Min_cycle;Max_cycle;Signal;HPM_P1;HPM_P2
2022/02/01 00:02:10;;;;;;;;;;;;;;;;;;10187675;28;19964;-63
2022/02/01 00:07:17;;;;;;;;;;;;;;;;;;10186801;28;19960;-62
2022/02/01 00:12:23;;;;;;;;;;;;;;;;;;10189399;28;19921;-62
2022/02/01 00:17:43;;;;;;;;;;;;;;;;;;10189001;28;19979;-62
2022/02/01 00:33:31;;;;;;;;;;;;;;;;;;10187263;28;19964;-62
2022/02/01 00:38:37;;;;;;;;;;;;;;;;;;10202988;28;19928;-61
2022/02/01 00:43:36;;;;;;;;;;;;;;;;;;10195165;28;19968;-62
2022/02/01 00:48:35;;;;;;;;;;;;;;;;;;10195934;28;19961;-62
2022/02/01 00:53:33;;;;;;;;;;;;;;;;;;10196068;28;20016;-62
2022/02/01 00:58:31;;;;;;;;;;;;;;;;;;10195794;28;20087;-62
2022/02/01 01:03:29;;;;;;;;;;;;;;;;;;10195486;28;19953;-62
2022/02/01 01:08:27;;;;;;;;;;;;;;;;;;10195638;28;19957;-62
2022/02/01 01:13:52;;;;;;;;;;;;;;;;;;10195533;28;19987;-63
2022/02/01 01:19:09;;;;;;;;;;;;;;;;;;10195401;28;19949;-63
2022/02/01 01:45:15;;;;;;;;;;;;;;;;;;10193037;28;19971;-63
2022/02/01 01:55:29;;;;;;;;;;;;;;;;;;10193903;28;19921;-60
2022/02/01 02:00:40;;;;;;;;;;;;;;;;;;10194838;28;20409;-62
2022/02/01 02:05:38;;;;;;;;;;;;;;;;;;10193053;28;20393;-63
2022/02/01 02:10:46;;;;;;;;;;;;;;;;;;10193038;28;19969;-62
2022/02/01 02:15:53;;;;;;;;;;;;;;;;;;10192315;28;20310;-62
2022/02/01 02:20:51;;;;;;;;;;;;;;;;;;10192219;28;19925;-63
2022/02/01 02:25:49;;;;;;;;;;;;;;;;;;10192161;28;20703;-62
2022/02/01 02:30:47;;;;;;;;;;;;;;;;;;10192128;28;19960;-62
2022/02/01 02:35:45;;;;;;;;;;;;;;;;;;10191451;28;19925;-62
2022/02/01 02:40:59;;;;;;;;;;;;;;;;;;10190826;28;19961;-62
2022/02/01 02:45:57;;;;;;;;;;;;;;;;;;10191624;28;19953;-63
2022/02/01 02:50:55;;;;;;;;;;;;;;;;;;10193393;28;19957;-63
2022/02/01 02:55:53;;;;;;;;;;;;;;;;;;10191010;28;19972;-62
2022/02/01 03:00:51;;;;;;;;;;;;;;;;;;10191283;28;20331;-62
2022/02/01 03:05:50;;;;;;;;;;;;;;;;;;10190506;28;19957;-62
2022/02/01 03:10:48;;;;;;;;;;;;;;;;;;10189965;28;19968;-63
2022/02/01 03:15:51;;;;;;;;;;;;;;;;;;10190717;28;19986;-62
2022/02/01 03:20:49;;;;;;;;;;;;;;;;;;10192324;28;19973;-63
2022/02/01 03:25:47;;;;;;;;;;;;;;;;;;10191840;28;20382;-62
2022/02/01 03:30:45;;;;;;;;;;;;;;;;;;10190129;28;20403;-61
2022/02/01 03:35:43;;;;;;;;;;;;;;;;;;10189775;28;19937;-62
2022/02/01 03:40:41;;;;;;;;;;;;;;;;;;10191004;28;19961;-63
2022/02/01 03:45:39;;;;;;;;;;;;;;;;;;10190173;28;20409;-63
2022/02/01 03:50:37;;;;;;;;;;;;;;;;;;10190708;28;19973;-62
2022/02/01 03:55:35;;;;;;;;;;;;;;;;;;10192107;28;20309;-61
2022/02/01 04:00:33;;;;;;;;;;;;;;;;;;10193804;28;19968;-62
2022/02/01 04:05:31;;;;;;;;;;;;;;;;;;10192587;28;19956;-62
2022/02/01 04:10:29;;;;;;;;;;;;;;;;;;10193585;28;19921;-62
2022/02/01 04:15:28;;;;;;;;;;;;;;;;;;10193062;28;20386;-63
2022/02/01 04:20:26;;;;;;;;;;;;;;;;;;10203896;28;19922;-62
2022/02/01 04:25:24;;;;;;;;;;;;;;;;;;10196868;28;19973;-62
2022/02/01 04:30:22;;;;;;;;;;;;;;;;;;10196858;28;19972;-62
2022/02/01 04:35:20;;;;;;;;;;;;;;;;;;10197755;28;19964;-63
2022/02/01 04:40:18;;;;;;;;;;;;;;;;;;10197337;28;19964;-62
2022/02/01 04:45:18;;;;;;;;;;;;;;;;;;10197345;28;19960;-63
2022/02/01 04:50:16;;;;;;;;;;;;;;;;;;10197043;28;19976;-63
2022/02/01 04:55:14;;;;;;;;;;;;;;;;;;10219880;28;19956;-64
2022/02/01 05:00:12;;;;;;;;;;;;;;;;;;10196991;28;19960;-63
2022/02/01 05:05:10;;;;;;;;;;;;;;;;;;10197228;28;19963;-62
2022/02/01 05:10:08;;;;;;;;;;;;;;;;;;10196457;28;20453;-62
2022/02/01 05:15:07;;;;;;;;;;;;;;;;;;10196318;28;20012;-62
2022/02/01 05:20:16;;;;;;;;;;;;;;;;;;10194220;28;19963;-62
2022/02/01 05:25:14;;;;;;;;;;;;;;;;;;10194920;28;19968;-64
2022/02/01 05:30:13;;;;;;;;;;;;;;;;;;10195133;28;20320;-61
2022/02/01 05:35:11;;;;;;;;;;;;;;;;;;10194308;28;19979;-63
2022/02/01 05:40:10;;;;;;;;;;;;;;;;;;10196457;28;19925;-63
2022/02/01 05:45:08;;;;;;;;;;;;;;;;;;10205972;28;20377;-63
2022/02/01 05:50:06;;;;;;;;;;;;;;;;;;10193237;28;19961;-63
2022/02/01 05:55:04;;;;;;;;;;;;;;;;;;10206096;28;19955;-64
2022/02/01 06:00:04;;;;;;;;;;;;;;;;;;10198459;28;19971;-62
2022/02/01 06:05:09;;;;;;;;;;;;;;;;;;10209364;28;19968;-63
2022/02/01 06:10:07;;;;;;;;;;;;;;;;;;10194479;28;19960;-63
2022/02/01 06:15:05;;;;;;;;;;;;;;;;;;10201935;28;19957;-62
2022/02/01 06:20:03;;;;;;;;;;;;;;;;;;10200882;28;20413;-63
2022/02/01 06:25:02;;;;;;;;;;;;;;;;;;10196467;28;19921;-63
2022/02/01 06:30:00;;;;;;;;;;;;;;;;;;10201248;28;20437;-62
2022/02/01 06:35:02;;;;;;;;;;;;;;;;;;10194551;28;19967;-63
2022/02/01 06:40:00;;;;;;;;;;;;;;;;;;10190629;28;19967;-63
2022/02/01 06:44:58;;;;;;;;;;;;;;;;;;10195687;28;19998;-63
2022/02/01 06:49:56;;;;;;;;;;;;;;;;;;10193480;28;20060;-63
2022/02/01 06:54:54;;;;;;;;;;;;;;;;;;10195824;28;20484;-63
2022/02/01 06:59:52;;;;;;;;;;;;;;;;;;10189687;28;20518;-62
2022/02/01 07:04:50;;;;;;;;;;;;;;;;;;10190219;28;19928;-62
2022/02/01 07:09:48;;;;;;;;;;;;;;;;;;10194832;28;20541;-63
2022/02/01 07:14:47;;;;;;;;;;;;;;;;;;10191599;28;19956;-59
2022/02/01 07:19:45;;;;;;;;;;;;;;;;;;10187653;28;19968;-61
2022/02/01 07:24:55;;;;;;;;;;;;;;;;;;10188634;28;19957;-62
2022/02/01 07:29:54;;;;;;;;;;;;;;;;;;10189160;28;19956;-62
2022/02/01 07:34:51;;;;;;;;;;;;;;;;;;10188384;28;19960;-62
2022/02/01 07:39:49;;;;;;;;;;;;;;;;;;10186307;28;19964;-62
2022/02/01 07:44:48;;;;;;;;;;;;;;;;;;10185992;28;19968;-62
2022/02/01 07:49:46;;;;;;;;;;;;;;;;;;10188726;28;19973;-62
2022/02/01 07:54:44;;;;;;;;;;;;;;;;;;10202689;28;19961;-62
2022/02/01 07:59:42;;;;;;;;;;;;;;;;;;10194243;28;19949;-62
2022/02/01 08:04:40;;;;;;;;;;;;;;;;;;10194478;28;19968;-62
2022/02/01 08:09:43;;;;;;;;;;;;;;;;;;10194051;28;19953;-62
2022/02/01 08:20:07;;;;;;;;;;;;;;;;;;10193144;28;19979;-62
2022/02/01 08:25:06;;;;;;;;;;;;;;;;;;10189696;28;20417;-63
2022/02/01 08:30:04;;;;;;;;;;;;;;;;;;10194949;28;19976;-62
2022/02/01 08:35:02;;;;;;;;;;;;;;;;;;10196557;28;19968;-62
2022/02/01 08:40:00;;;;;;;;;;;;;;;;;;10200626;28;20399;-62
2022/02/01 08:44:58;;;;;;;;;;;;;;;;;;10200534;28;19952;-63
2022/02/01 08:49:56;;;;;;;;;;;;;;;;;;10200021;28;19960;-62
2022/02/01 08:54:55;;;;;;;;;;;;;;;;;;10196480;28;20473;-63
2022/02/01 08:59:53;;;;;;;;;;;;;;;;;;10195510;28;20399;-63
2022/02/01 09:04:51;;;;;;;;;;;;;;;;;;10195131;28;20018;-62
2022/02/01 09:09:49;;;;;;;;;;;;;;;;;;10195473;28;19972;-63
2022/02/01 09:14:47;;;;;;;;;;;;;;;;;;10194748;28;19921;-63
2022/02/01 09:19:45;;;;;;;;;;;;;;;;;;10199922;28;19960;-62
2022/02/01 09:24:43;;;;;;;;;;;;;;;;;;10199830;28;19959;-62
2022/02/01 09:29:41;;;;;;;;;;;;;;;;;;10198572;28;19976;-62
2022/02/01 09:34:39;;;;;;;;;;;;;;;;;;10195334;28;19928;-62
2022/02/01 09:39:37;;;;;;;;;;;;;;;;;;10193625;28;19983;-62
2022/02/01 09:44:35;;;;;;;;;;;;;;;;;;10194771;28;20505;-62
2022/02/01 09:49:33;;;;;;;;;;;;;;;;;;10187340;28;20387;-62
2022/02/01 09:54:31;;;;;;;;;;;;;;;;;;10195747;28;19964;-63
2022/02/01 09:59:32;;;;;;;;;;;;;;;;;;10194155;28;20401;-62
2022/02/01 10:04:30;;;;;;;;;;;;;;;;;;10186226;28;19928;-62
2022/02/01 10:09:28;;;;;;;;;;;;;;;;;;10192798;28;19968;-62
2022/02/01 10:14:29;;;;;;;;;;;;;;;;;;10192991;28;20253;-63
2022/02/01 10:19:27;;;;;;;;;;;;;;;;;;10193420;28;19961;-63
2022/02/01 10:24:25;;;;;;;;;;;;;;;;;;10193093;28;20009;-62
2022/02/01 10:29:23;;;;;;;;;;;;;;;;;;10192945;28;19961;-62
2022/02/01 10:34:42;;;;;;;;;;;;;;;;;;10193610;28;19959;-62
2022/02/01 10:40:02;;;;;;;;;;;;;;;;;;10191538;28;19976;-62
2022/02/01 10:45:00;;;;;;;;;;;;;;;;;;10192338;28;19967;-62
2022/02/01 10:49:59;;;;;;;;;;;;;;;;;;10195514;28;19976;-62
2022/02/01 10:54:57;;;;;;;;;;;;;;;;;;10195677;28;19979;-62
2022/02/01 10:59:55;;;;;;;;;;;;;;;;;;10195405;28;19960;-63
2022/02/01 11:04:53;;;;;;;;;;;;;;;;;;10191129;28;20334;-63
2022/02/01 11:09:51;;;;;;;;;;;;;;;;;;10191365;28;19964;-63
2022/02/01 11:14:49;;;;;;;;;;;;;;;;;;10190601;28;19957;-63
2022/02/01 11:19:47;;;;;;;;;;;;;;;;;;10204766;28;19969;-63
2022/02/01 11:24:55;;;;;;;;;;;;;;;;;;10190703;28;20392;-63
2022/02/01 11:30:11;;;;;;;;;;;;;;;;;;10191483;28;19979;-62
2022/02/01 11:35:09;;;;;;;;;;;;;;;;;;10189737;28;19975;-62
2022/02/01 11:40:26;;;;;;;;;;;;;;;;;;10191195;28;19925;-62
2022/02/01 11:45:24;;;;;;;;;;;;;;;;;;10191658;28;20307;-63
2022/02/01 11:50:25;;;;;;;;;;;;;;;;;;10189817;28;20350;-63
2022/02/01 11:55:24;;;;;;;;;;;;;;;;;;10190572;28;19928;-63
2022/02/01 12:00:27;;;;;;;;;;;;;;;;;;10206009;28;19925;-63
2022/02/01 12:05:28;;;;;;;;;;;;;;;;;;10191310;28;19932;-63
2022/02/01 12:10:27;;;;;;;;;;;;;;;;;;10190512;28;19984;-63
2022/02/01 12:15:25;;;;;;;;;;;;;;;;;;10190623;28;19932;-63
2022/02/01 12:20:23;;;;;;;;;;;;;;;;;;10197564;28;20294;-62
2022/02/01 12:25:24;;;;;;;;;;;;;;;;;;10189807;28;19991;-63
2022/02/01 12:30:22;;;;;;;;;;;;;;;;;;10203743;28;19960;-63
2022/02/01 12:35:20;;;;;;;;;;;;;;;;;;10189774;28;19957;-62
2022/02/01 12:40:18;;;;;;;;;;;;;;;;;;10196182;28;19963;-62
2022/02/01 12:50:31;;;;;;;;;;;;;;;;;;10196545;28;19964;-61
2022/02/01 12:55:29;;;;;;;;;;;;;;;;;;10196656;28;20351;-60
2022/02/01 13:00:38;;;;;;;;;;;;;;;;;;10195943;28;19964;-62
2022/02/01 13:05:38;;;;;;;;;;;;;;;;;;10196606;28;20350;-62
2022/02/01 13:16:05;;;;;;;;;;;;;;;;;;10195088;28;20334;-62
2022/02/01 13:21:03;;;;;;;;;;;;;;;;;;10195288;28;20391;-63
2022/02/01 13:26:01;;;;;;;;;;;;;;;;;;10196065;28;20409;-62
2022/02/01 13:31:12;;;;;;;;;;;;;;;;;;10195460;28;20059;-62
2022/02/01 13:36:10;;;;;;;;;;;;;;;;;;10194631;28;19988;-62
2022/02/01 13:41:08;;;;;;;;;;;;;;;;;;10195350;28;19952;-62
2022/02/01 13:46:06;;;;;;;;;;;;;;;;;;10194338;28;19921;-63
2022/02/01 13:51:04;;;;;;;;;;;;;;;;;;10194852;28;20675;-64
2022/02/01 13:56:02;;;;;;;;;;;;;;;;;;10194792;28;20379;-62
2022/02/01 14:01:00;;;;;;;;;;;;;;;;;;10193977;28;19976;-62
2022/02/01 14:06:00;;;;;;;;;;;;;;;;;;10193032;28;19961;-62
2022/02/01 14:11:24;;;;;;;;;;;;;;;;;;10193598;28;20351;-62
2022/02/01 14:22:24;;;;;;;;;;;;;;;;;;10191287;28;20377;-62
2022/02/01 14:27:15;;;;;;;;;;;;;;;;;;10191769;28;19965;-63
2022/02/01 14:32:47;;;;;;;;;;;;;;;;;;10193957;28;19961;-62
2022/02/01 14:37:44;;;;;;;;;;;;;;;;;;10195699;28;19965;-62
2022/02/01 14:47:58;;;;;;;;;;;;;;;;;;10189252;28;20326;-63
2022/02/01 14:52:57;;;;;;;;;;;;;;;;;;10185398;28;20354;-63
2022/02/01 15:13:42;;;;;;;;;;;;;;;;;;10185283;28;19929;-62
2022/02/01 15:18:54;;;;;;;;;;;;;;;;;;10191264;28;19957;-62
2022/02/01 15:23:52;;;;;;;;;;;;;;;;;;10191087;28;19971;-62
2022/02/01 15:28:52;;;;;;;;;;;;;;;;;;10190726;28;20390;-63
2022/02/01 15:33:54;;;;;;;;;;;;;;;;;;10192330;28;19928;-62
2022/02/01 15:54:59;;;;;;;;;;;;;;;;;;10180692;28;19964;-62
2022/02/01 16:00:21;;;;;;;;;;;;;;;;;;10189618;28;20393;-62
2022/02/01 16:05:20;;;;;;;;;;;;;;;;;;10189991;28;19960;-62
2022/02/01 16:10:25;;;;;;;;;;;;;;;;;;10190177;28;19964;-62
2022/02/01 16:15:23;;;;;;;;;;;;;;;;;;10201853;28;19964;-63
2022/02/01 16:20:21;;;;;;;;;;;;;;;;;;10205207;28;19928;-63
2022/02/01 16:25:19;;;;;;;;;;;;;;;;;;10201073;28;19928;-63
2022/02/01 16:30:17;;;;;;;;;;;;;;;;;;10196368;28;19975;-63
2022/02/01 16:35:16;;;;;;;;;;;;;;;;;;10197122;28;19967;-63
2022/02/01 16:40:14;;;;;;;;;;;;;;;;;;10196358;28;20395;-62
2022/02/01 16:45:12;;;;;;;;;;;;;;;;;;10196110;28;19921;-61
2022/02/01 16:50:27;;;;;;;;;;;;;;;;;;10196565;28;19968;-62
2022/02/01 16:55:33;;;;;;;;;;;;;;;;;;10196490;28;19953;-62
2022/02/01 17:00:32;;;;;;;;;;;;;;;;;;10197472;28;19921;-62
2022/02/01 17:05:30;;;;;;;;;;;;;;;;;;10194965;28;19921;-61
2022/02/01 17:10:29;;;;;;;;;;;;;;;;;;10201175;28;19968;-62
2022/02/01 17:15:40;;;;;;;;;;;;;;;;;;10212105;28;19967;-63
2022/02/01 17:25:54;;;;;;;;;;;;;;;;;;10207935;28;20421;-62
2022/02/01 17:30:52;;;;;;;;;;;;;;;;;;10215513;28;19956;-60
2022/02/01 17:35:50;;;;;;;;;;;;;;;;;;10206130;28;19952;-64
2022/02/01 17:40:48;;;;;;;;;;;;;;;;;;10195963;28;21781;-63
2022/02/01 17:45:48;;;;;;;;;;;;;;;;;;10191891;28;19971;-63
2022/02/01 17:50:59;;;;;;;;;;;;;;;;;;10194216;28;19972;-62
2022/02/01 17:55:57;;;;;;;;;;;;;;;;;;10190289;28;19971;-63
2022/02/01 18:00:55;;;;;;;;;;;;;;;;;;10194946;28;19956;-63
2022/02/01 18:05:53;;;;;;;;;;;;;;;;;;10194304;28;20028;-63
2022/02/01 18:10:51;;;;;;;;;;;;;;;;;;10193002;28;20371;-62
2022/02/01 18:15:49;;;;;;;;;;;;;;;;;;10192012;28;19980;-62
2022/02/01 18:20:48;;;;;;;;;;;;;;;;;;10195503;28;20124;-63
2022/02/01 18:25:45;;;;;;;;;;;;;;;;;;10192218;28;19960;-61
2022/02/01 18:30:45;;;;;;;;;;;;;;;;;;10192754;28;19961;-61
2022/02/01 18:35:43;;;;;;;;;;;;;;;;;;10191057;28;20427;-61
2022/02/01 18:40:51;;;;;;;;;;;;;;;;;;10194349;28;20334;-62
2022/02/01 18:45:51;;;;;;;;;;;;;;;;;;10201012;28;19972;-61
2022/02/01 18:50:59;;;;;;;;;;;;;;;;;;10211423;28;19968;-62
2022/02/01 19:06:50;;;;;;;;;;;;;;;;;;10194626;28;19964;-62
2022/02/01 19:11:54;;;;;;;;;;;;;;;;;;10208052;28;20043;-62
2022/02/01 19:16:52;;;;;;;;;;;;;;;;;;10216040;28;19957;-62
2022/02/01 19:21:50;;;;;;;;;;;;;;;;;;10208301;28;19956;-61
2022/02/01 19:26:50;;;;;;;;;;;;;;;;;;10215973;28;19952;-62
2022/02/01 19:31:48;;;;;;;;;;;;;;;;;;10212659;28;19961;-61
2022/02/01 19:36:46;;;;;;;;;;;;;;;;;;10201804;28;19952;-62
2022/02/01 19:41:46;;;;;;;;;;;;;;;;;;10207297;28;19959;-62
2022/02/01 19:46:51;;;;;;;;;;;;;;;;;;10217998;28;19964;-62
2022/02/01 19:51:49;;;;;;;;;;;;;;;;;;10214440;28;19964;-60
2022/02/01 19:56:47;;;;;;;;;;;;;;;;;;10219338;28;19964;-61
2022/02/01 20:01:53;;;;;;;;;;;;;;;;;;10223413;28;19975;-60
2022/02/01 20:06:52;;;;;;;;;;;;;;;;;;10226557;28;19975;-61
2022/02/01 20:11:50;;;;;;;;;;;;;;;;;;10223900;28;19968;-61
2022/02/01 20:16:48;;;;;;;;;;;;;;;;;;10215977;28;19968;-62
2022/02/01 20:21:53;;;;;;;;;;;;;;;;;;10213407;28;19960;-62
2022/02/01 20:26:51;;;;;;;;;;;;;;;;;;10225527;28;19967;-62
2022/02/01 20:31:49;;;;;;;;;;;;;;;;;;10224559;28;20366;-62
2022/02/01 20:36:51;;;;;;;;;;;;;;;;;;10221799;28;19961;-61
2022/02/01 20:41:52;;;;;;;;;;;;;;;;;;10215457;28;19967;-62
2022/02/01 20:46:50;;;;;;;;;;;;;;;;;;10235488;28;19967;-61
2022/02/01 20:51:48;;;;;;;;;;;;;;;;;;10216123;28;20004;-61
2022/02/01 20:56:47;;;;;;;;;;;;;;;;;;10223471;28;19949;-62
2022/02/01 21:01:45;;;;;;;;;;;;;;;;;;10226340;28;20419;-62
2022/02/01 21:06:43;;;;;;;;;;;;;;;;;;10221832;28;19957;-61
2022/02/01 21:11:41;;;;;;;;;;;;;;;;;;10222383;28;19964;-60
2022/02/01 21:16:39;;;;;;;;;;;;;;;;;;10221514;28;19949;-61
2022/02/01 21:21:39;;;;;;;;;;;;;;;;;;10218308;28;19967;-62
2022/02/01 21:26:37;;;;;;;;;;;;;;;;;;10207579;28;20509;-62
2022/02/01 21:31:35;;;;;;;;;;;;;;;;;;10202029;28;19963;-62
2022/02/01 21:36:33;;;;;;;;;;;;;;;;;;10218414;28;20425;-61
2022/02/01 21:41:31;;;;;;;;;;;;;;;;;;10210536;28;20394;-62
2022/02/01 21:46:29;;;;;;;;;;;;;;;;;;10216030;28;20358;-61
2022/02/01 21:51:27;;;;;;;;;;;;;;;;;;10218918;28;19969;-62
2022/02/01 21:56:25;;;;;;;;;;;;;;;;;;10216746;28;19961;-62
2022/02/01 22:01:24;;;;;;;;;;;;;;;;;;10212917;28;19967;-60
2022/02/01 22:06:22;;;;;;;;;;;;;;;;;;10218309;28;19961;-62
2022/02/01 22:11:20;;;;;;;;;;;;;;;;;;10217108;28;19952;-61
2022/02/01 22:16:20;;;;;;;;;;;;;;;;;;10217948;28;19956;-62
2022/02/01 22:21:18;;;;;;;;;;;;;;;;;;10215584;28;19960;-62
2022/02/01 22:26:16;;;;;;;;;;;;;;;;;;10216537;28;20355;-62
2022/02/01 22:31:14;;;;;;;;;;;;;;;;;;10214536;28;19960;-61
2022/02/01 22:36:12;;;;;;;;;;;;;;;;;;10215618;28;19968;-62
2022/02/01 22:41:10;;;;;;;;;;;;;;;;;;10216631;28;19967;-62
2022/02/01 22:46:11;;;;;;;;;;;;;;;;;;10214942;28;19956;-62
2022/02/01 22:51:09;;;;;;;;;;;;;;;;;;10215087;28;19956;-62
2022/02/01 22:56:07;;;;;;;;;;;;;;;;;;10212203;28;19963;-62
2022/02/01 23:01:05;;;;;;;;;;;;;;;;;;10213607;28;20361;-62
2022/02/01 23:06:05;;;;;;;;;;;;;;;;;;10217043;28;19957;-62
2022/02/01 23:11:15;;;;;;;;;;;;;;;;;;10215467;28;19960;-62
2022/02/01 23:21:29;;;;;;;;;;;;;;;;;;10213810;28;19980;-63
2022/02/01 23:26:27;;;;;;;;;;;;;;;;;;10214421;28;20347;-62
2022/02/01 23:31:36;;;;;;;;;;;;;;;;;;10213296;28;19987;-62
2022/02/01 23:36:54;;;;;;;;;;;;;;;;;;10214434;28;19980;-62
2022/02/01 23:52:23;;;;;;;;;;;;;;;;;;10214183;28;20370;-62
2022/02/01 23:57:22;;;;;;;;;;;;;;;;;;10215082;28;19952;-62
